Main page


Airports :

Belgrade, Serbia

Belgrade Nikola Tesla Airport

latitude: 44-49N, longitude: 020-17E, elevation: 96 m

Current weather observation

The report was made 27 minutes ago, at 03:30 UTC
Wind 6 kt from the South/Southeast
Temperature 14°C
Humidity 88%
Pressure 1018 hPa
Visibility 10 km or more
Broken clouds at a height of 4000 ft
light rain

METAR: LYBE 260330Z 16006KT 9999 -RA BKN040 14/12 Q1018 NOSIG

Time: 05:57 (03:57 UTC)


The report was made 4 hours and 57 minutes ago, at 23:00 UTC
Forecast valid from 26 at 00 UTC to 26 at 24 UTC
Wind 7 kt from the East/Southeast
Visibility 10 km or more
Scattered clouds at a height of 4000 ft
from 26 at 04 UTC to 26 at 12 UTC
Visibility: 4000 m
from 26 at 08 UTC to 26 at 10 UTC
Wind 10 kt from the Northwest
from 26 at 12 UTC to 26 at 14 UTC
Broken clouds at a height of 1300 ft
Broken clouds at a height of 3000 ft

TAF: LYBE 252300Z 2600/2624 12007KT 9999 SCT040 TX14/2600Z TN08/2624Z TEMPO 2604/2612 4000 RA BECMG 2608/2610 32010KT BECMG 2612/2614 BKN013 BKN030

Weather observations and forecasts of more than 4000 airports (METAR and TAF reports).

The available stations are represented by yellow and red dots on the map.

Hover mouse over dot to see the name of the station.

Then click to see weather observations and forecasts.

To change the map : click on the green buttons with a black cross to zoom in, on the green button with a dash to zoom out, or on the green arrows for adjacent maps.